createdAt,value
2022-07-28T00:00:14.859Z,27.36
2022-07-28T00:02:42.559Z,27.33
2022-07-28T00:05:10.026Z,27.24
2022-07-28T00:07:37.509Z,27.27
2022-07-28T00:10:05.337Z,27.37
2022-07-28T00:12:32.645Z,27.38
2022-07-28T00:14:59.854Z,27.18
2022-07-28T00:17:27.715Z,27.18
2022-07-28T00:19:55.386Z,27.05
2022-07-28T00:22:22.693Z,27.02
2022-07-28T00:24:49.932Z,27.25
2022-07-28T00:27:19.334Z,27.32
2022-07-28T00:29:50.275Z,27.18
2022-07-28T00:32:18.630Z,27.22
2022-07-28T00:34:46.098Z,27.17
2022-07-28T00:37:14.843Z,27.06
2022-07-28T00:39:43.012Z,27.04
2022-07-28T00:42:10.264Z,27.07
2022-07-28T00:44:42.209Z,27.09
2022-07-28T00:47:09.737Z,27.02
2022-07-28T00:49:36.969Z,27.02
2022-07-28T00:52:04.880Z,27.11
2022-07-28T00:54:32.698Z,27.18
2022-07-28T00:57:00.066Z,27.28
2022-07-28T00:59:27.389Z,27.20
2022-07-28T01:01:55.610Z,27.23
2022-07-28T01:04:24.308Z,27.17
2022-07-28T01:06:51.600Z,27.27
2022-07-28T01:09:29.993Z,27.23
2022-07-28T01:12:16.171Z,27.25
2022-07-28T01:14:52.501Z,27.25
2022-07-28T01:17:25.796Z,27.14
2022-07-28T01:19:53.347Z,26.99
2022-07-28T01:22:24.560Z,26.98
2022-07-28T01:25:10.476Z,26.93
2022-07-28T01:27:56.307Z,27.09
2022-07-28T01:30:27.682Z,27.08
2022-07-28T01:33:00.201Z,27.05
2022-07-28T01:35:30.254Z,26.97
2022-07-28T01:37:59.818Z,27.01
2022-07-28T01:40:30.182Z,26.95
2022-07-28T01:42:59.345Z,26.88
2022-07-28T01:45:27.491Z,26.89
2022-07-28T01:47:56.022Z,26.77
2022-07-28T01:50:25.000Z,26.83
2022-07-28T01:52:52.925Z,26.75
2022-07-28T01:55:20.909Z,26.64
2022-07-28T01:57:48.859Z,26.60
2022-07-28T02:00:17.816Z,26.53
2022-07-28T02:02:46.962Z,26.43
2022-07-28T02:05:16.871Z,26.59
2022-07-28T02:07:47.701Z,26.50
2022-07-28T02:10:15.993Z,26.36
2022-07-28T02:12:44.987Z,26.27
2022-07-28T02:15:15.789Z,26.15
2022-07-28T02:17:45.063Z,26.09
2022-07-28T02:20:13.464Z,25.91
2022-07-28T02:22:41.273Z,25.58
2022-07-28T02:25:08.811Z,25.25
2022-07-28T02:27:44.782Z,25.14
2022-07-28T02:30:16.642Z,25.35
2022-07-28T02:33:03.641Z,25.20
2022-07-28T02:35:38.167Z,25.39
2022-07-28T02:38:07.477Z,25.46
2022-07-28T02:40:36.419Z,25.52
2022-07-28T02:43:06.920Z,25.21
2022-07-28T02:45:35.802Z,25.31
2022-07-28T02:48:05.553Z,25.48
2022-07-28T02:50:32.788Z,25.59
2022-07-28T02:53:02.068Z,25.49
2022-07-28T02:55:47.436Z,25.32
2022-07-28T02:58:16.189Z,25.52
2022-07-28T03:00:44.338Z,25.46
2022-07-28T03:03:12.065Z,25.40
2022-07-28T03:05:40.288Z,25.37
2022-07-28T03:08:07.667Z,25.30
2022-07-28T03:10:35.000Z,25.34
2022-07-28T03:13:05.273Z,25.29
2022-07-28T03:15:33.264Z,25.25
2022-07-28T03:18:01.114Z,25.26
2022-07-28T03:20:28.452Z,25.24
2022-07-28T03:22:55.820Z,25.25
2022-07-28T03:25:39.429Z,25.23
2022-07-28T03:28:08.226Z,25.21
2022-07-28T03:30:38.698Z,25.26
2022-07-28T03:33:06.489Z,25.24
2022-07-28T03:35:35.814Z,25.25
2022-07-28T03:38:08.667Z,25.23
2022-07-28T03:40:37.664Z,25.23
2022-07-28T03:43:08.221Z,25.18
2022-07-28T03:45:35.765Z,25.22
2022-07-28T03:48:03.293Z,25.29
2022-07-28T03:50:31.575Z,25.19
2022-07-28T03:53:00.154Z,25.08
2022-07-28T03:55:27.387Z,25.08
2022-07-28T03:57:54.609Z,25.22
2022-07-28T04:00:22.072Z,25.09
2022-07-28T04:02:49.379Z,24.95
2022-07-28T04:05:17.503Z,24.89
2022-07-28T04:07:46.178Z,24.85
2022-07-28T04:10:14.905Z,24.42
2022-07-28T04:12:46.422Z,24.39
2022-07-28T04:15:14.643Z,24.39
2022-07-28T04:17:42.688Z,24.36
2022-07-28T04:20:10.424Z,24.30
2022-07-28T04:22:37.655Z,24.27
2022-07-28T04:25:05.386Z,24.39
2022-07-28T04:27:32.493Z,24.45
2022-07-28T04:29:59.701Z,24.46
2022-07-28T04:32:26.971Z,24.48
2022-07-28T04:34:54.187Z,24.46
2022-07-28T04:37:21.432Z,24.44
2022-07-28T04:39:50.743Z,24.41
2022-07-28T04:42:21.531Z,24.49
2022-07-28T04:44:49.309Z,24.52
2022-07-28T04:47:16.689Z,24.59
2022-07-28T04:49:44.157Z,24.60
2022-07-28T04:52:12.720Z,24.60
2022-07-28T04:54:39.938Z,24.66
2022-07-28T04:57:10.295Z,24.76
2022-07-28T04:59:40.673Z,24.78
2022-07-28T05:02:07.937Z,24.84
2022-07-28T05:04:35.549Z,24.97
2022-07-28T05:07:07.879Z,25.07
2022-07-28T05:09:40.041Z,25.18
2022-07-28T05:12:07.394Z,25.17
2022-07-28T05:14:34.613Z,25.26
2022-07-28T05:17:02.167Z,25.23
2022-07-28T05:19:29.702Z,25.33
2022-07-28T05:21:56.919Z,25.42
2022-07-28T05:24:24.204Z,25.57
2022-07-28T05:26:51.417Z,25.72
2022-07-28T05:29:18.645Z,25.84
2022-07-28T05:31:45.884Z,25.80
2022-07-28T05:34:13.384Z,25.90
2022-07-28T05:36:40.710Z,25.88
2022-07-28T05:39:07.980Z,25.82
2022-07-28T05:41:35.181Z,25.90
2022-07-28T05:44:02.470Z,25.96
2022-07-28T05:46:29.868Z,26.05
2022-07-28T05:48:57.206Z,26.13
2022-07-28T05:51:24.494Z,26.67
2022-07-28T05:53:51.894Z,26.91
2022-07-28T05:56:19.222Z,26.87
2022-07-28T05:58:46.478Z,26.67
2022-07-28T06:01:13.762Z,26.60
2022-07-28T06:03:42.572Z,26.59
2022-07-28T06:06:14.586Z,26.45
2022-07-28T06:08:45.043Z,26.42
2022-07-28T06:11:21.624Z,26.49
2022-07-28T06:13:50.487Z,26.53
2022-07-28T06:16:18.749Z,26.49
2022-07-28T06:18:46.204Z,26.57
2022-07-28T06:21:13.599Z,26.69
2022-07-28T06:23:41.576Z,26.77
2022-07-28T06:26:09.263Z,26.87
2022-07-28T06:28:37.356Z,26.92
2022-07-28T06:31:04.657Z,27.01
2022-07-28T06:33:32.137Z,26.96
2022-07-28T06:35:59.359Z,26.88
2022-07-28T06:38:26.562Z,26.93
2022-07-28T06:40:53.831Z,26.97
2022-07-28T06:43:21.080Z,27.07
2022-07-28T06:45:48.344Z,27.19
2022-07-28T06:48:15.723Z,27.12
2022-07-28T06:50:42.944Z,27.16
2022-07-28T06:53:10.261Z,27.28
2022-07-28T06:55:37.711Z,27.37
2022-07-28T06:58:05.128Z,27.42
2022-07-28T07:00:32.612Z,27.46
2022-07-28T07:03:00.838Z,27.42
2022-07-28T07:05:32.099Z,27.42
2022-07-28T07:07:59.995Z,27.49
2022-07-28T07:10:27.229Z,27.46
2022-07-28T07:12:54.459Z,27.53
2022-07-28T07:15:21.666Z,27.54
2022-07-28T07:17:48.847Z,27.61
2022-07-28T07:20:18.092Z,27.65
2022-07-28T07:22:46.232Z,27.67
2022-07-28T07:25:15.077Z,27.73
2022-07-28T07:27:42.395Z,27.70
2022-07-28T07:30:10.302Z,27.65
2022-07-28T07:32:37.665Z,27.75
2022-07-28T07:35:06.110Z,27.81
2022-07-28T07:37:33.357Z,27.79
2022-07-28T07:40:01.605Z,27.91
2022-07-28T07:42:29.016Z,27.95
2022-07-28T07:44:56.581Z,27.80
2022-07-28T07:47:23.933Z,27.98
2022-07-28T07:49:51.715Z,28.10
2022-07-28T07:52:19.073Z,28.18
2022-07-28T07:54:46.540Z,28.12
2022-07-28T07:57:14.233Z,28.21
2022-07-28T07:59:41.831Z,28.22
2022-07-28T08:02:09.174Z,28.19
2022-07-28T08:04:37.098Z,28.29
2022-07-28T08:07:05.588Z,28.45
2022-07-28T08:09:33.379Z,28.51
2022-07-28T08:12:00.693Z,28.43
2022-07-28T08:14:28.067Z,28.47
2022-07-28T08:16:56.806Z,28.46
2022-07-28T08:19:24.382Z,28.43
2022-07-28T08:21:52.099Z,28.64
2022-07-28T08:24:32.888Z,28.65
2022-07-28T08:27:04.998Z,28.76
2022-07-28T08:29:32.438Z,28.93
2022-07-28T08:32:01.381Z,29.04
2022-07-28T08:34:31.660Z,29.11
2022-07-28T08:37:02.004Z,29.58
2022-07-28T08:39:29.792Z,29.82
2022-07-28T08:42:04.468Z,29.87
2022-07-28T08:44:38.004Z,30.04
2022-07-28T08:47:08.465Z,29.72
2022-07-28T08:49:39.281Z,29.88
2022-07-28T08:52:09.769Z,29.99
2022-07-28T08:54:37.411Z,30.02
2022-07-28T08:57:04.560Z,30.13
2022-07-28T08:59:31.937Z,30.39
2022-07-28T09:01:59.200Z,30.57
2022-07-28T09:04:26.716Z,30.97
2022-07-28T09:06:54.761Z,30.82
2022-07-28T09:09:22.462Z,30.71
2022-07-28T09:11:49.674Z,30.46
2022-07-28T09:14:17.178Z,30.77
2022-07-28T09:16:44.779Z,30.72
2022-07-28T09:19:12.018Z,30.91
2022-07-28T09:21:39.269Z,31.22
2022-07-28T09:24:06.830Z,31.29
2022-07-28T09:26:34.029Z,31.05
2022-07-28T09:29:03.898Z,31.33
2022-07-28T09:31:31.225Z,31.13
2022-07-28T09:33:58.562Z,31.26
2022-07-28T09:36:25.984Z,30.81
2022-07-28T09:38:54.173Z,31.49
2022-07-28T09:41:22.004Z,31.55
2022-07-28T09:43:54.476Z,31.70
2022-07-28T09:46:27.423Z,31.92
2022-07-28T09:49:01.075Z,31.41
2022-07-28T09:51:33.534Z,30.97
2022-07-28T09:54:11.345Z,30.54
2022-07-28T09:56:43.747Z,30.54
2022-07-28T09:59:12.794Z,30.62
2022-07-28T10:01:52.083Z,30.74
2022-07-28T10:04:29.860Z,30.53
2022-07-28T10:07:18.013Z,30.52
2022-07-28T10:09:55.946Z,30.45
2022-07-28T10:12:24.832Z,30.31
2022-07-28T10:14:53.516Z,30.27
2022-07-28T10:17:23.742Z,30.35
2022-07-28T10:19:52.116Z,30.56
2022-07-28T10:22:19.820Z,30.74
2022-07-28T10:24:47.774Z,30.71
2022-07-28T10:27:15.209Z,30.56
2022-07-28T10:29:44.388Z,30.60
2022-07-28T10:32:12.299Z,30.70
2022-07-28T10:34:46.414Z,30.73
2022-07-28T10:37:17.447Z,30.69
2022-07-28T10:39:51.715Z,30.74
2022-07-28T10:42:19.778Z,30.72
2022-07-28T10:44:49.662Z,30.96
2022-07-28T10:47:18.294Z,31.04
2022-07-28T10:49:48.554Z,31.15
2022-07-28T10:52:45.819Z,30.83
2022-07-28T10:55:25.870Z,30.59
2022-07-28T10:58:11.721Z,30.94
2022-07-28T11:00:56.119Z,30.95
2022-07-28T11:03:40.478Z,30.82
2022-07-28T11:06:39.850Z,30.64
2022-07-28T11:09:16.185Z,30.71
2022-07-28T11:11:49.879Z,30.75
2022-07-28T11:14:22.855Z,30.70
2022-07-28T11:17:00.893Z,30.94
2022-07-28T11:20:07.191Z,31.06
2022-07-28T11:22:38.163Z,31.08
2022-07-28T11:25:18.667Z,30.92
2022-07-28T11:27:51.906Z,30.93
2022-07-28T11:30:21.247Z,30.99
2022-07-28T11:32:51.678Z,30.98
2022-07-28T11:35:19.631Z,31.00
2022-07-28T11:37:59.051Z,30.97
2022-07-28T11:40:29.401Z,30.83
2022-07-28T11:43:35.724Z,30.94
2022-07-28T11:46:07.063Z,31.02
2022-07-28T11:48:37.563Z,31.15
2022-07-28T11:51:04.893Z,31.24
2022-07-28T11:53:35.210Z,31.38
2022-07-28T11:56:25.475Z,31.50
2022-07-28T11:59:00.509Z,31.47
2022-07-28T12:01:27.911Z,31.17
2022-07-28T12:04:00.019Z,31.09
2022-07-28T12:06:35.449Z,31.05
2022-07-28T12:09:02.853Z,31.14
2022-07-28T12:11:34.266Z,31.25
2022-07-28T12:14:05.721Z,31.37
2022-07-28T12:16:34.154Z,31.32
2022-07-28T12:19:02.133Z,31.42
2022-07-28T12:21:45.741Z,31.49
2022-07-28T12:24:27.916Z,31.48
2022-07-28T12:26:55.837Z,31.50
2022-07-28T12:29:24.191Z,31.52
2022-07-28T12:32:01.238Z,31.46
2022-07-28T12:34:29.862Z,31.39
2022-07-28T12:36:58.594Z,31.11
2022-07-28T12:39:26.322Z,31.16
2022-07-28T12:42:13.862Z,31.28
2022-07-28T12:44:41.149Z,31.46
2022-07-28T12:47:10.771Z,31.54
2022-07-28T12:49:39.340Z,31.61
2022-07-28T12:52:19.787Z,31.61
2022-07-28T12:54:50.509Z,31.52
2022-07-28T12:57:48.356Z,31.44
2022-07-28T13:00:19.606Z,31.33
2022-07-28T13:02:47.951Z,31.39
2022-07-28T13:05:27.443Z,31.41
2022-07-28T13:08:04.828Z,31.57
2022-07-28T13:10:32.495Z,31.64
2022-07-28T13:13:01.634Z,31.40
2022-07-28T13:15:28.915Z,31.43
2022-07-28T13:17:57.138Z,31.39
2022-07-28T13:20:24.796Z,31.38
2022-07-28T13:22:52.658Z,31.44
2022-07-28T13:25:20.380Z,31.39
2022-07-28T13:27:52.329Z,31.43
2022-07-28T13:30:22.783Z,31.48
2022-07-28T13:32:50.263Z,31.48
2022-07-28T13:35:18.836Z,31.54
2022-07-28T13:37:48.367Z,31.60
2022-07-28T13:40:15.639Z,31.59
2022-07-28T13:42:53.094Z,31.48
2022-07-28T13:45:24.528Z,31.50
2022-07-28T13:47:52.336Z,31.45
2022-07-28T13:50:21.046Z,31.30
2022-07-28T13:52:48.599Z,31.34
2022-07-28T13:55:17.710Z,31.38
2022-07-28T13:57:49.071Z,31.40
2022-07-28T14:00:34.237Z,31.45
2022-07-28T14:03:01.633Z,31.43
2022-07-28T14:05:31.859Z,31.43
2022-07-28T14:08:00.096Z,31.49
2022-07-28T14:10:27.662Z,31.38
2022-07-28T14:12:55.115Z,31.37
2022-07-28T14:15:22.269Z,31.34
2022-07-28T14:17:49.561Z,31.31
2022-07-28T14:20:16.901Z,31.16
2022-07-28T14:22:44.727Z,31.09
2022-07-28T14:25:21.131Z,31.12
2022-07-28T14:27:49.625Z,31.10
2022-07-28T14:30:17.215Z,31.10
2022-07-28T14:32:44.597Z,31.05
2022-07-28T14:35:11.931Z,31.03
2022-07-28T14:40:26.564Z,31.00
2022-07-28T14:42:53.757Z,31.00
2022-07-28T14:45:21.050Z,31.01
2022-07-28T14:47:48.263Z,31.04
2022-07-28T14:50:15.470Z,31.09
2022-07-28T14:52:44.984Z,31.04
2022-07-28T14:55:12.675Z,30.91
2022-07-28T14:57:50.389Z,30.91
2022-07-28T15:00:23.248Z,30.99
2022-07-28T15:02:53.904Z,30.98
2022-07-28T15:05:21.910Z,30.96
2022-07-28T15:07:51.855Z,30.95
2022-07-28T15:10:19.806Z,30.95
2022-07-28T15:12:47.058Z,30.90
2022-07-28T15:15:14.301Z,30.53
2022-07-28T15:17:41.599Z,30.60
2022-07-28T15:20:09.464Z,30.73
2022-07-28T15:22:37.220Z,30.52
2022-07-28T15:25:05.323Z,30.68
2022-07-28T15:27:33.674Z,30.73
2022-07-28T15:30:02.880Z,30.81
2022-07-28T15:32:31.742Z,30.81
2022-07-28T15:34:59.459Z,30.78
2022-07-28T15:37:28.035Z,30.84
2022-07-28T15:39:55.442Z,30.97
2022-07-28T15:42:22.772Z,30.99
2022-07-28T15:44:51.357Z,30.98
2022-07-28T15:47:18.574Z,30.91
2022-07-28T15:49:45.842Z,30.90
2022-07-28T15:52:14.577Z,30.88
2022-07-28T15:54:42.256Z,30.91
2022-07-28T15:57:09.538Z,30.89
2022-07-28T15:59:49.670Z,30.97
2022-07-28T16:02:18.673Z,31.04
2022-07-28T16:04:50.002Z,30.84
2022-07-28T16:07:24.729Z,30.70
2022-07-28T16:09:54.206Z,30.70
2022-07-28T16:12:24.804Z,30.76
2022-07-28T16:14:55.735Z,30.79
2022-07-28T16:17:23.220Z,30.80
2022-07-28T16:19:51.665Z,30.62
2022-07-28T16:22:19.278Z,30.64
2022-07-28T16:24:46.721Z,30.69
2022-07-28T16:27:14.733Z,30.72
2022-07-28T16:29:42.258Z,30.77
2022-07-28T16:32:09.555Z,30.78
2022-07-28T16:34:37.085Z,30.70
2022-07-28T16:37:05.693Z,30.75
2022-07-28T16:39:33.514Z,30.75
2022-07-28T16:42:01.441Z,30.73
2022-07-28T16:44:29.448Z,30.79
2022-07-28T16:46:58.092Z,30.80
2022-07-28T16:49:25.600Z,30.86
2022-07-28T16:51:52.990Z,30.89
2022-07-28T16:54:20.727Z,30.90
2022-07-28T16:56:49.298Z,30.88
2022-07-28T16:59:16.738Z,30.87
2022-07-28T17:01:46.413Z,30.93
2022-07-28T17:04:15.149Z,30.92
2022-07-28T17:06:43.258Z,30.90
2022-07-28T17:09:10.901Z,30.76
2022-07-28T17:11:38.247Z,30.74
2022-07-28T17:14:05.827Z,30.65
2022-07-28T17:16:33.121Z,30.62
2022-07-28T17:19:00.718Z,30.61
2022-07-28T17:21:28.057Z,30.60
2022-07-28T17:23:55.267Z,30.45
2022-07-28T17:27:32.549Z,30.49
2022-07-28T17:29:10.392Z,30.45
2022-07-28T17:31:39.039Z,30.30
2022-07-28T17:34:07.570Z,30.23
2022-07-28T17:36:35.639Z,30.22
2022-07-28T17:39:03.524Z,30.12
2022-07-28T17:41:30.813Z,30.04
2022-07-28T17:43:58.031Z,30.10
2022-07-28T17:46:26.448Z,30.15
2022-07-28T17:48:54.387Z,30.09
2022-07-28T17:51:21.952Z,30.05
2022-07-28T17:53:50.335Z,30.08
2022-07-28T17:56:18.438Z,30.14
2022-07-28T17:58:45.916Z,30.11
2022-07-28T18:01:14.614Z,30.19
2022-07-28T18:03:56.691Z,30.23
2022-07-28T18:06:32.704Z,30.09
2022-07-28T18:09:05.532Z,29.99
2022-07-28T18:11:35.967Z,29.96
2022-07-28T18:14:05.571Z,30.04
2022-07-28T18:16:34.706Z,29.98
2022-07-28T18:19:02.843Z,29.97
2022-07-28T18:21:30.117Z,29.99
2022-07-28T18:23:57.349Z,30.00
2022-07-28T18:26:24.577Z,29.95
2022-07-28T18:28:52.164Z,29.97
2022-07-28T18:31:19.600Z,29.83
2022-07-28T18:33:46.903Z,29.75
2022-07-28T18:36:14.129Z,29.71
2022-07-28T18:38:41.698Z,29.64
2022-07-28T18:41:08.926Z,29.48
2022-07-28T18:46:38.735Z,29.49
2022-07-28T18:49:06.081Z,29.53
2022-07-28T18:51:33.277Z,29.39
2022-07-28T18:54:00.442Z,29.40
2022-07-28T18:56:27.668Z,29.45
2022-07-28T18:58:56.089Z,29.43
2022-07-28T19:01:23.923Z,29.50
2022-07-28T19:03:51.231Z,29.40
2022-07-28T19:06:18.466Z,29.31
2022-07-28T19:08:45.678Z,29.35
2022-07-28T19:11:16.146Z,29.31
2022-07-28T19:13:46.009Z,29.32
2022-07-28T19:16:13.367Z,29.30
2022-07-28T19:18:40.709Z,29.34
2022-07-28T19:21:08.811Z,29.28
2022-07-28T19:23:36.034Z,29.24
2022-07-28T19:26:03.833Z,29.19
2022-07-28T19:28:31.049Z,29.28
2022-07-28T19:30:59.935Z,29.17
2022-07-28T19:33:37.313Z,29.19
2022-07-28T19:36:10.841Z,29.13
2022-07-28T19:38:38.126Z,29.14
2022-07-28T19:41:05.293Z,29.12
2022-07-28T19:43:32.985Z,29.10
2022-07-28T19:46:00.405Z,29.11
2022-07-28T19:48:27.802Z,29.15
2022-07-28T19:50:56.468Z,29.17
2022-07-28T19:53:31.941Z,29.24
2022-07-28T19:55:59.637Z,29.19
2022-07-28T19:58:26.829Z,29.16
2022-07-28T20:00:56.357Z,29.08
2022-07-28T20:04:01.250Z,28.99
2022-07-28T20:06:11.785Z,29.03
2022-07-28T20:08:39.555Z,29.14
2022-07-28T20:11:07.211Z,29.13
2022-07-28T20:13:34.638Z,28.91
2022-07-28T20:16:01.868Z,28.87
2022-07-28T20:18:29.071Z,28.85
2022-07-28T20:20:56.283Z,28.89
2022-07-28T20:23:23.453Z,28.89
2022-07-28T20:25:50.637Z,28.84
2022-07-28T20:28:17.855Z,28.79
2022-07-28T20:30:45.120Z,28.92
2022-07-28T20:33:12.349Z,28.98
2022-07-28T20:35:39.550Z,28.89
2022-07-28T20:38:08.266Z,28.85
2022-07-28T20:40:35.521Z,28.70
2022-07-28T20:43:02.913Z,28.65
2022-07-28T20:45:31.723Z,28.63
2022-07-28T20:47:59.033Z,28.76
2022-07-28T20:50:26.349Z,28.73
2022-07-28T20:52:53.545Z,28.82
2022-07-28T20:55:20.876Z,28.90
2022-07-28T20:57:53.201Z,28.74
2022-07-28T21:00:21.861Z,28.62
2022-07-28T21:02:49.156Z,28.54
2022-07-28T21:05:25.686Z,28.56
2022-07-28T21:08:04.684Z,28.50
2022-07-28T21:10:34.241Z,28.60
2022-07-28T21:13:01.497Z,28.57
2022-07-28T21:15:29.472Z,28.36
2022-07-28T21:18:14.776Z,28.40
2022-07-28T21:20:42.417Z,28.39
2022-07-28T21:23:09.584Z,28.33
2022-07-28T21:25:36.913Z,28.35
2022-07-28T21:28:22.739Z,28.27
2022-07-28T21:30:49.919Z,28.19
2022-07-28T21:33:22.394Z,28.22
2022-07-28T21:35:50.712Z,28.43
2022-07-28T21:38:17.921Z,28.47
2022-07-28T21:40:45.186Z,28.45
2022-07-28T21:43:12.374Z,28.30
2022-07-28T21:45:39.632Z,28.29
2022-07-28T21:48:06.852Z,28.24
2022-07-28T21:50:35.857Z,28.34
2022-07-28T21:53:03.176Z,28.40
2022-07-28T21:55:30.517Z,28.44
2022-07-28T21:57:57.722Z,28.35
2022-07-28T22:00:25.029Z,28.08
2022-07-28T22:02:52.191Z,27.79
2022-07-28T22:05:19.476Z,27.68
2022-07-28T22:07:48.269Z,27.54
2022-07-28T22:10:15.631Z,27.55
2022-07-28T22:12:43.064Z,27.13
2022-07-28T22:15:10.581Z,26.65
2022-07-28T22:17:38.049Z,26.07
2022-07-28T22:20:05.581Z,25.77
2022-07-28T22:22:32.989Z,25.32
2022-07-28T22:25:00.159Z,25.09
2022-07-28T22:27:27.515Z,24.95
2022-07-28T22:29:54.732Z,24.78
2022-07-28T22:32:28.699Z,24.32
2022-07-28T22:34:59.514Z,24.48
2022-07-28T22:37:26.725Z,24.54
2022-07-28T22:39:54.011Z,24.33
2022-07-28T22:42:21.238Z,24.19
2022-07-28T22:44:48.681Z,24.28
2022-07-28T22:47:15.906Z,24.34
2022-07-28T22:49:43.119Z,24.37
2022-07-28T22:52:10.300Z,24.39
2022-07-28T22:57:22.669Z,23.56
2022-07-28T22:59:51.251Z,23.61
2022-07-28T23:02:18.705Z,23.70
2022-07-28T23:04:51.428Z,23.76
2022-07-28T23:07:19.146Z,23.71
2022-07-28T23:09:46.767Z,23.77
2022-07-28T23:12:14.089Z,23.65
2022-07-28T23:14:41.314Z,23.60
2022-07-28T23:17:08.570Z,23.43
2022-07-28T23:19:35.797Z,23.69
2022-07-28T23:22:03.163Z,23.83
2022-07-28T23:24:30.525Z,23.92
2022-07-28T23:26:57.754Z,23.85
2022-07-28T23:29:25.001Z,23.68
2022-07-28T23:31:54.032Z,23.82
2022-07-28T23:34:21.414Z,23.80
2022-07-28T23:36:48.738Z,23.83
2022-07-28T23:39:16.004Z,23.90
2022-07-28T23:41:43.314Z,23.97
2022-07-28T23:44:10.522Z,23.95
2022-07-28T23:46:37.896Z,23.79
2022-07-28T23:49:05.679Z,23.87
2022-07-28T23:51:46.644Z,23.96
2022-07-28T23:54:15.026Z,24.11
2022-07-28T23:56:42.896Z,24.02
2022-07-28T23:59:13.673Z,23.99
